createdAt,value
2022-09-13T00:03:42.727Z,17.50
2022-09-13T00:06:12.476Z,17.50
2022-09-13T00:08:42.872Z,17.50
2022-09-13T00:11:33.580Z,17.50
2022-09-13T00:14:10.940Z,17.50
2022-09-13T00:16:41.218Z,17.50
2022-09-13T00:19:10.968Z,17.50
2022-09-13T00:21:38.603Z,17.50
2022-09-13T00:24:06.765Z,17.50
2022-09-13T00:26:34.448Z,17.50
2022-09-13T00:29:03.288Z,17.50
2022-09-13T00:31:32.152Z,17.50
2022-09-13T00:34:01.795Z,17.50
2022-09-13T00:36:37.106Z,17.50
2022-09-13T00:39:05.477Z,17.50
2022-09-13T00:41:36.187Z,17.50
2022-09-13T00:44:04.960Z,17.50
2022-09-13T00:46:52.408Z,17.50
2022-09-13T00:49:24.279Z,17.60
2022-09-13T00:52:07.814Z,17.50
2022-09-13T00:54:44.263Z,17.50
2022-09-13T00:57:14.013Z,17.50
2022-09-13T00:59:47.523Z,17.50
2022-09-13T01:02:16.750Z,17.50
2022-09-13T01:04:47.629Z,17.50
2022-09-13T01:07:17.911Z,17.50
2022-09-13T01:09:51.025Z,17.50
2022-09-13T01:12:23.987Z,17.50
2022-09-13T01:14:52.803Z,17.50
2022-09-13T01:17:23.607Z,17.60
2022-09-13T01:19:50.905Z,17.60
2022-09-13T01:22:53.026Z,17.60
2022-09-13T01:25:47.075Z,17.60
2022-09-13T01:28:17.575Z,17.60
2022-09-13T01:31:07.969Z,17.60
2022-09-13T01:34:13.540Z,17.60
2022-09-13T01:36:59.720Z,17.60
2022-09-13T01:39:48.736Z,17.50
2022-09-13T01:42:48.469Z,17.60
2022-09-13T01:45:46.470Z,17.60
2022-09-13T01:49:02.073Z,17.60
2022-09-13T01:52:06.430Z,17.60
2022-09-13T01:54:49.005Z,17.60
2022-09-13T01:57:18.790Z,17.60
2022-09-13T01:59:53.969Z,17.60
2022-09-13T02:06:13.533Z,17.60
2022-09-13T02:08:57.304Z,17.60
2022-09-13T02:11:25.167Z,17.60
2022-09-13T02:14:10.275Z,17.60
2022-09-13T02:16:55.071Z,17.60
2022-09-13T02:19:47.511Z,17.60
2022-09-13T02:22:24.066Z,17.60
2022-09-13T02:24:58.237Z,17.60
2022-09-13T02:27:29.405Z,17.60
2022-09-13T02:30:07.779Z,17.60
2022-09-13T02:32:42.071Z,17.60
2022-09-13T02:35:42.224Z,17.60
2022-09-13T02:38:24.753Z,17.60
2022-09-13T02:41:06.592Z,17.60
2022-09-13T02:43:42.514Z,17.60
2022-09-13T02:46:32.682Z,17.60
2022-09-13T02:49:26.747Z,17.60
2022-09-13T02:52:28.179Z,17.60
2022-09-13T02:55:14.888Z,17.60
2022-09-13T02:58:03.799Z,17.60
2022-09-13T03:00:33.154Z,17.60
2022-09-13T03:03:07.036Z,17.50
2022-09-13T03:05:35.922Z,17.50
2022-09-13T03:08:06.364Z,17.50
2022-09-13T03:10:44.776Z,17.50
2022-09-13T03:13:34.450Z,17.50
2022-09-13T03:16:33.736Z,17.50
2022-09-13T03:19:39.948Z,17.50
2022-09-13T03:22:11.059Z,17.50
2022-09-13T03:25:14.146Z,17.50
2022-09-13T03:28:13.748Z,17.50
2022-09-13T03:30:51.445Z,17.50
2022-09-13T03:33:48.676Z,17.50
2022-09-13T03:36:24.746Z,17.60
2022-09-13T03:39:05.920Z,17.50
2022-09-13T03:41:40.140Z,17.50
2022-09-13T03:44:14.301Z,17.50
2022-09-13T03:46:49.091Z,17.50
2022-09-13T03:49:18.680Z,17.50
2022-09-13T03:51:50.151Z,17.50
2022-09-13T03:54:25.505Z,17.50
2022-09-13T03:57:13.015Z,17.50
2022-09-13T03:59:47.178Z,17.50
2022-09-13T04:02:15.825Z,17.50
2022-09-13T04:04:45.448Z,17.50
2022-09-13T04:07:16.078Z,17.50
2022-09-13T04:09:43.834Z,17.50
2022-09-13T04:12:14.784Z,17.50
2022-09-13T04:14:44.771Z,17.50
2022-09-13T04:17:14.409Z,17.50
2022-09-13T04:19:42.853Z,17.50
2022-09-13T04:22:10.200Z,17.50
2022-09-13T04:24:39.058Z,17.40
2022-09-13T04:27:07.150Z,17.40
2022-09-13T04:29:35.144Z,17.40
2022-09-13T04:32:03.354Z,17.40
2022-09-13T04:34:31.842Z,17.40
2022-09-13T04:37:03.422Z,17.30
2022-09-13T04:39:35.190Z,17.30
2022-09-13T04:42:04.265Z,17.30
2022-09-13T04:44:35.442Z,17.30
2022-09-13T04:47:03.260Z,17.30
2022-09-13T04:49:33.693Z,17.30
2022-09-13T04:52:01.878Z,17.30
2022-09-13T04:54:35.571Z,17.30
2022-09-13T04:57:04.435Z,17.30
2022-09-13T04:59:35.280Z,17.30
2022-09-13T05:02:03.948Z,17.30
2022-09-13T05:04:32.021Z,17.30
2022-09-13T05:06:59.629Z,17.30
2022-09-13T05:09:28.301Z,17.30
2022-09-13T05:11:55.807Z,17.30
2022-09-13T05:14:23.423Z,17.40
2022-09-13T05:16:50.781Z,17.40
2022-09-13T05:19:18.517Z,17.40
2022-09-13T05:21:47.799Z,17.30
2022-09-13T05:24:15.584Z,17.40
2022-09-13T05:26:43.265Z,17.40
2022-09-13T05:29:10.771Z,17.40
2022-09-13T05:31:41.178Z,17.30
2022-09-13T05:34:14.734Z,17.40
2022-09-13T05:36:44.899Z,17.30
2022-09-13T05:39:32.045Z,17.40
2022-09-13T05:42:07.255Z,17.40
2022-09-13T05:44:35.570Z,17.40
2022-09-13T05:47:04.352Z,17.40
2022-09-13T05:49:33.183Z,17.40
2022-09-13T05:52:17.650Z,17.40
2022-09-13T05:54:46.320Z,17.50
2022-09-13T05:57:15.828Z,17.50
2022-09-13T05:59:43.090Z,17.50
2022-09-13T06:02:12.834Z,17.50
2022-09-13T06:08:05.559Z,17.40
2022-09-13T06:10:35.350Z,17.40
2022-09-13T06:13:03.409Z,17.40
2022-09-13T06:15:31.615Z,17.50
2022-09-13T06:18:03.092Z,17.50
2022-09-13T06:20:32.071Z,17.50
2022-09-13T06:23:01.703Z,17.60
2022-09-13T06:25:29.889Z,17.60
2022-09-13T06:27:58.541Z,17.60
2022-09-13T06:30:26.605Z,17.60
2022-09-13T06:32:57.154Z,17.60
2022-09-13T06:35:25.199Z,17.70
2022-09-13T06:37:57.567Z,17.70
2022-09-13T06:40:25.876Z,17.80
2022-09-13T06:42:53.612Z,17.80
2022-09-13T06:45:21.923Z,17.90
2022-09-13T06:47:50.095Z,18.00
2022-09-13T06:50:18.344Z,18.00
2022-09-13T06:52:45.949Z,18.10
2022-09-13T06:55:13.386Z,18.20
2022-09-13T06:57:41.887Z,18.30
2022-09-13T07:00:10.344Z,18.40
2022-09-13T07:02:37.852Z,18.40
2022-09-13T07:05:05.873Z,18.50
2022-09-13T07:07:33.752Z,18.50
2022-09-13T07:10:03.210Z,18.60
2022-09-13T07:12:33.504Z,18.60
2022-09-13T07:15:04.630Z,18.70
2022-09-13T07:17:34.062Z,18.80
2022-09-13T07:20:07.197Z,18.90
2022-09-13T07:22:37.655Z,18.90
2022-09-13T07:25:05.426Z,19.00
2022-09-13T07:27:33.123Z,19.10
2022-09-13T07:30:03.215Z,19.10
2022-09-13T07:32:33.435Z,19.20
2022-09-13T07:35:08.351Z,19.20
2022-09-13T07:37:35.807Z,19.30
2022-09-13T07:40:03.943Z,19.40
2022-09-13T07:42:32.408Z,19.40
2022-09-13T07:45:04.532Z,19.40
2022-09-13T07:47:34.043Z,19.50
2022-09-13T07:50:04.735Z,19.60
2022-09-13T07:52:37.976Z,19.70
2022-09-13T07:55:06.965Z,19.70
2022-09-13T07:57:35.237Z,19.80
2022-09-13T08:00:05.780Z,19.90
2022-09-13T08:02:39.942Z,20.00
2022-09-13T08:05:07.955Z,20.10
2022-09-13T08:07:35.434Z,20.20
2022-09-13T08:10:05.724Z,20.30
2022-09-13T08:12:33.291Z,20.40
2022-09-13T08:15:02.867Z,20.50
2022-09-13T08:17:33.482Z,20.60
2022-09-13T08:20:06.331Z,20.60
2022-09-13T08:22:34.756Z,20.70
2022-09-13T08:25:05.386Z,20.70
2022-09-13T08:27:33.112Z,20.80
2022-09-13T08:30:02.220Z,20.80
2022-09-13T08:32:45.893Z,20.90
2022-09-13T08:35:14.983Z,21.00
2022-09-13T08:37:42.813Z,21.10
2022-09-13T08:40:11.478Z,21.30
2022-09-13T08:43:06.054Z,21.40
2022-09-13T08:45:35.546Z,21.50
2022-09-13T08:48:15.858Z,21.60
2022-09-13T08:50:45.633Z,21.90
2022-09-13T08:53:20.049Z,22.10
2022-09-13T08:55:57.421Z,22.20
2022-09-13T08:58:49.567Z,22.30
2022-09-13T09:01:42.128Z,22.50
2022-09-13T09:04:23.770Z,22.70
2022-09-13T09:06:57.851Z,22.80
2022-09-13T09:09:26.630Z,23.00
2022-09-13T09:12:17.351Z,23.00
2022-09-13T09:15:02.744Z,23.00
2022-09-13T09:17:47.808Z,23.00
2022-09-13T09:20:24.095Z,23.10
2022-09-13T09:22:55.231Z,23.10
2022-09-13T09:25:26.865Z,23.20
2022-09-13T09:27:54.593Z,23.20
2022-09-13T09:30:22.424Z,23.30
2022-09-13T09:33:24.449Z,23.30
2022-09-13T09:36:16.934Z,23.40
2022-09-13T09:38:44.899Z,23.60
2022-09-13T09:41:32.477Z,23.80
2022-09-13T09:44:17.342Z,23.90
2022-09-13T09:46:57.198Z,23.90
2022-09-13T09:49:54.419Z,24.00
2022-09-13T09:52:28.741Z,24.10
2022-09-13T09:55:11.405Z,24.10
2022-09-13T09:57:57.841Z,24.10
2022-09-13T10:00:31.267Z,24.10
2022-09-13T10:03:18.467Z,24.00
2022-09-13T10:05:47.693Z,23.90
2022-09-13T10:08:28.779Z,24.00
2022-09-13T10:11:09.051Z,24.00
2022-09-13T10:13:39.218Z,24.00
2022-09-13T10:16:23.672Z,23.90
2022-09-13T10:18:52.618Z,24.00
2022-09-13T10:21:19.897Z,24.10
2022-09-13T10:23:50.960Z,24.10
2022-09-13T10:26:22.096Z,24.20
2022-09-13T10:28:58.926Z,24.40
2022-09-13T10:31:40.300Z,24.50
2022-09-13T10:34:43.341Z,24.70
2022-09-13T10:37:34.170Z,24.80
2022-09-13T10:40:38.422Z,25.00
2022-09-13T10:43:19.578Z,25.10
2022-09-13T10:45:52.216Z,25.10
2022-09-13T10:48:21.128Z,25.20
2022-09-13T10:51:18.941Z,25.30
2022-09-13T10:53:46.216Z,25.40
2022-09-13T10:56:33.790Z,25.60
2022-09-13T10:59:26.135Z,25.70
2022-09-13T11:01:53.711Z,25.90
2022-09-13T11:04:46.354Z,26.00
2022-09-13T11:07:35.766Z,25.90
2022-09-13T11:10:29.504Z,25.90
2022-09-13T11:13:31.129Z,25.70
2022-09-13T11:16:17.277Z,25.70
2022-09-13T11:19:29.183Z,25.60
2022-09-13T11:22:21.369Z,25.60
2022-09-13T11:25:11.562Z,25.60
2022-09-13T11:27:57.271Z,25.50
2022-09-13T11:30:30.126Z,25.30
2022-09-13T11:33:05.027Z,25.60
2022-09-13T11:35:48.488Z,25.60
2022-09-13T11:38:48.066Z,25.70
2022-09-13T11:41:31.389Z,25.60
2022-09-13T11:44:18.122Z,25.70
2022-09-13T11:46:57.260Z,25.80
2022-09-13T11:49:33.870Z,26.00
2022-09-13T11:52:13.338Z,26.30
2022-09-13T11:54:57.837Z,26.30
2022-09-13T11:57:32.871Z,26.30
2022-09-13T12:00:11.074Z,26.20
2022-09-13T12:02:52.789Z,26.10
2022-09-13T12:05:24.014Z,26.00
2022-09-13T12:08:28.251Z,25.80
2022-09-13T12:11:05.084Z,25.80
2022-09-13T12:13:41.755Z,26.00
2022-09-13T12:16:16.599Z,26.30
2022-09-13T12:18:46.951Z,26.30
2022-09-13T12:21:16.193Z,26.20
2022-09-13T12:23:52.825Z,26.30
2022-09-13T12:26:40.028Z,26.20
2022-09-13T12:29:26.456Z,25.90
2022-09-13T12:31:59.665Z,26.10
2022-09-13T12:35:09.593Z,26.30
2022-09-13T12:37:48.834Z,26.50
2022-09-13T12:40:31.691Z,26.60
2022-09-13T12:43:40.509Z,26.80
2022-09-13T12:46:39.319Z,26.80
2022-09-13T12:49:41.680Z,26.90
2022-09-13T12:52:43.197Z,27.00
2022-09-13T12:55:47.779Z,27.30
2022-09-13T12:58:37.635Z,27.50
2022-09-13T13:01:18.204Z,28.00
2022-09-13T13:04:04.089Z,28.30
2022-09-13T13:06:37.600Z,28.30
2022-09-13T13:09:25.294Z,28.60
2022-09-13T13:11:58.717Z,29.10
2022-09-13T13:14:47.098Z,29.40
2022-09-13T13:17:38.771Z,29.30
2022-09-13T13:20:44.271Z,29.00
2022-09-13T13:23:37.022Z,28.50
2022-09-13T13:26:16.554Z,28.20
2022-09-13T13:28:47.299Z,27.90
2022-09-13T13:31:31.171Z,27.60
2022-09-13T13:34:15.258Z,27.30
2022-09-13T13:36:49.292Z,27.30
2022-09-13T13:39:25.865Z,27.30
2022-09-13T13:42:11.674Z,27.30
2022-09-13T13:44:43.385Z,27.30
2022-09-13T13:47:15.053Z,27.40
2022-09-13T13:49:52.900Z,27.30
2022-09-13T13:52:23.192Z,27.30
2022-09-13T13:55:21.420Z,27.20
2022-09-13T13:58:08.176Z,27.20
2022-09-13T14:00:37.046Z,27.00
2022-09-13T14:03:38.474Z,27.00
2022-09-13T14:06:29.143Z,27.00
2022-09-13T14:09:43.903Z,26.80
2022-09-13T14:12:26.581Z,26.80
2022-09-13T14:15:27.346Z,26.80
2022-09-13T14:18:15.231Z,26.60
2022-09-13T14:21:18.832Z,26.60
2022-09-13T14:23:46.612Z,26.40
2022-09-13T14:26:18.522Z,26.30
2022-09-13T14:28:46.599Z,26.10
2022-09-13T14:31:20.545Z,25.90
2022-09-13T14:33:55.232Z,25.80
2022-09-13T14:36:33.211Z,25.70
2022-09-13T14:39:02.901Z,25.60
2022-09-13T14:41:37.443Z,25.60
2022-09-13T14:44:29.032Z,25.60
2022-09-13T14:47:32.970Z,25.50
2022-09-13T14:50:13.336Z,25.30
2022-09-13T14:52:49.051Z,25.20
2022-09-13T14:55:21.935Z,25.10
2022-09-13T14:57:54.095Z,25.00
2022-09-13T15:00:26.566Z,25.00
2022-09-13T15:03:11.285Z,25.10
2022-09-13T15:05:41.444Z,25.10
2022-09-13T15:08:50.362Z,25.10
2022-09-13T15:11:38.083Z,24.90
2022-09-13T15:14:16.502Z,24.90
2022-09-13T15:17:22.862Z,24.90
2022-09-13T15:20:05.735Z,25.00
2022-09-13T15:22:36.081Z,25.00
2022-09-13T15:25:23.408Z,24.90
2022-09-13T15:27:51.718Z,24.90
2022-09-13T15:30:39.438Z,24.80
2022-09-13T15:33:13.134Z,24.70
2022-09-13T15:35:43.511Z,24.70
2022-09-13T15:38:28.656Z,24.50
2022-09-13T15:41:20.346Z,24.40
2022-09-13T15:43:51.303Z,24.30
2022-09-13T15:46:22.382Z,24.30
2022-09-13T15:49:21.027Z,24.20
2022-09-13T15:51:53.211Z,24.10
2022-09-13T15:54:25.434Z,24.00
2022-09-13T15:56:53.211Z,24.00
2022-09-13T15:59:23.441Z,23.90
2022-09-13T16:01:52.210Z,23.80
2022-09-13T16:04:22.223Z,23.70
2022-09-13T16:06:54.628Z,23.70
2022-09-13T16:09:27.332Z,23.60
2022-09-13T16:11:55.299Z,23.60
2022-09-13T16:14:22.911Z,23.50
2022-09-13T16:16:52.075Z,23.40
2022-09-13T16:19:22.572Z,23.40
2022-09-13T16:21:51.691Z,23.30
2022-09-13T16:24:19.559Z,23.30
2022-09-13T16:26:47.810Z,23.20
2022-09-13T16:29:15.298Z,23.10
2022-09-13T16:31:42.880Z,23.10
2022-09-13T16:34:10.849Z,23.00
2022-09-13T16:36:38.716Z,23.00
2022-09-13T16:39:06.117Z,22.90
2022-09-13T16:41:40.791Z,22.90
2022-09-13T16:44:09.313Z,22.80
2022-09-13T16:46:37.294Z,22.80
2022-09-13T16:49:05.176Z,22.80
2022-09-13T16:51:32.908Z,22.70
2022-09-13T16:54:04.047Z,22.70
2022-09-13T16:56:34.733Z,22.70
2022-09-13T16:59:03.991Z,22.60
2022-09-13T17:01:32.904Z,22.50
2022-09-13T17:04:02.904Z,22.40
2022-09-13T17:06:32.569Z,22.40
2022-09-13T17:09:02.691Z,22.30
2022-09-13T17:11:37.528Z,22.20
2022-09-13T17:14:16.694Z,22.20
2022-09-13T17:16:50.086Z,22.10
2022-09-13T17:19:24.773Z,22.00
2022-09-13T17:21:53.805Z,21.90
2022-09-13T17:24:33.492Z,21.90
2022-09-13T17:27:09.574Z,21.90
2022-09-13T17:29:37.755Z,21.80
2022-09-13T17:32:23.816Z,21.80
2022-09-13T17:34:52.570Z,21.80
2022-09-13T17:37:20.804Z,21.70
2022-09-13T17:39:53.528Z,21.60
2022-09-13T17:42:23.529Z,21.60
2022-09-13T17:44:51.323Z,21.50
2022-09-13T17:47:21.467Z,21.50
2022-09-13T17:49:49.900Z,21.40
2022-09-13T17:52:17.549Z,21.30
2022-09-13T17:54:46.755Z,21.20
2022-09-13T17:57:15.769Z,21.10
2022-09-13T17:59:43.823Z,21.10
2022-09-13T18:02:11.308Z,21.00
2022-09-13T18:04:38.975Z,20.90
2022-09-13T18:07:37.134Z,20.80
2022-09-13T18:10:13.012Z,20.80
2022-09-13T18:12:54.116Z,20.70
2022-09-13T18:15:22.532Z,20.70
2022-09-13T18:17:50.270Z,20.60
2022-09-13T18:20:18.532Z,20.60
2022-09-13T18:22:46.246Z,20.50
2022-09-13T18:25:14.547Z,20.40
2022-09-13T18:27:43.228Z,20.50
2022-09-13T18:30:12.771Z,20.40
2022-09-13T18:32:40.316Z,20.40
2022-09-13T18:35:10.093Z,20.30
2022-09-13T18:37:37.866Z,20.20
2022-09-13T18:40:09.352Z,20.20
2022-09-13T18:42:40.873Z,20.10
2022-09-13T18:45:11.482Z,20.10
2022-09-13T18:47:39.295Z,20.00
2022-09-13T18:50:11.219Z,20.00
2022-09-13T18:52:41.079Z,19.90
2022-09-13T18:55:09.973Z,19.90
2022-09-13T18:57:45.677Z,19.90
2022-09-13T19:00:14.223Z,19.80
2022-09-13T19:03:01.989Z,19.80
2022-09-13T19:05:36.322Z,19.80
2022-09-13T19:08:11.038Z,19.80
2022-09-13T19:10:40.264Z,19.80
2022-09-13T19:13:08.782Z,19.70
2022-09-13T19:15:36.932Z,19.70
2022-09-13T19:18:05.652Z,19.70
2022-09-13T19:20:33.601Z,19.60
2022-09-13T19:23:04.016Z,19.60
2022-09-13T19:25:35.004Z,19.60
2022-09-13T19:28:03.915Z,19.50
2022-09-13T19:30:35.380Z,19.50
2022-09-13T19:33:03.616Z,19.50
2022-09-13T19:35:36.039Z,19.50
2022-09-13T19:38:03.820Z,19.40
2022-09-13T19:40:34.759Z,19.40
2022-09-13T19:43:05.472Z,19.40
2022-09-13T19:45:33.851Z,19.40
2022-09-13T19:50:52.252Z,19.30
2022-09-13T19:53:40.782Z,19.30
2022-09-13T19:56:16.644Z,19.30
2022-09-13T19:58:44.592Z,19.30
2022-09-13T20:01:18.119Z,19.30
2022-09-13T20:04:16.236Z,19.30
2022-09-13T20:06:46.426Z,19.30
2022-09-13T20:09:17.530Z,19.30
2022-09-13T20:11:45.656Z,19.20
2022-09-13T20:14:14.876Z,19.20
2022-09-13T20:16:45.949Z,19.10
2022-09-13T20:22:09.689Z,19.10
2022-09-13T20:24:40.304Z,19.10
2022-09-13T20:27:08.208Z,19.00
2022-09-13T20:29:35.550Z,19.00
2022-09-13T20:32:03.472Z,19.00
2022-09-13T20:34:35.317Z,19.10
2022-09-13T20:37:03.594Z,19.00
2022-09-13T20:39:35.600Z,19.00
2022-09-13T20:42:03.868Z,19.10
2022-09-13T20:44:33.911Z,19.00
2022-09-13T20:47:02.840Z,19.00
2022-09-13T20:49:33.094Z,19.00
2022-09-13T20:52:01.560Z,19.00
2022-09-13T20:54:32.891Z,18.90
2022-09-13T20:57:02.080Z,18.90
2022-09-13T20:59:29.731Z,18.90
2022-09-13T21:02:01.581Z,18.90
2022-09-13T21:04:28.958Z,18.90
2022-09-13T21:07:15.428Z,18.90
2022-09-13T21:09:44.239Z,18.80
2022-09-13T21:12:11.557Z,18.80
2022-09-13T21:14:39.835Z,18.80
2022-09-13T21:17:08.999Z,18.70
2022-09-13T21:19:37.394Z,18.70
2022-09-13T21:22:04.931Z,18.70
2022-09-13T21:24:35.409Z,18.60
2022-09-13T21:27:03.470Z,18.60
2022-09-13T21:29:40.927Z,18.60
2022-09-13T21:32:10.179Z,18.60
2022-09-13T21:34:40.076Z,18.60
2022-09-13T21:37:07.878Z,18.60
2022-09-13T21:39:35.419Z,18.50
2022-09-13T21:42:05.176Z,18.50
2022-09-13T21:44:41.835Z,18.50
2022-09-13T21:47:10.836Z,18.40
2022-09-13T21:49:39.393Z,18.30
2022-09-13T21:52:10.248Z,18.30
2022-09-13T21:54:38.072Z,18.30
2022-09-13T21:57:07.773Z,18.20
2022-09-13T21:59:35.713Z,18.10
2022-09-13T22:02:04.336Z,18.10
2022-09-13T22:04:37.443Z,18.10
2022-09-13T22:10:11.961Z,18.10
2022-09-13T22:12:40.085Z,18.00
2022-09-13T22:15:08.701Z,18.00
2022-09-13T22:17:36.373Z,18.00
2022-09-13T22:20:04.357Z,18.00
2022-09-13T22:22:36.044Z,18.00
2022-09-13T22:25:04.070Z,18.00
2022-09-13T22:27:34.293Z,17.90
2022-09-13T22:30:04.324Z,17.90
2022-09-13T22:32:34.268Z,17.90
2022-09-13T22:35:07.064Z,17.90
2022-09-13T22:37:35.616Z,17.90
2022-09-13T22:40:04.911Z,17.90
2022-09-13T22:42:35.188Z,17.90
2022-09-13T22:45:04.216Z,17.80
2022-09-13T22:47:34.203Z,17.80
2022-09-13T22:50:03.783Z,17.80
2022-09-13T22:52:33.823Z,17.80
2022-09-13T22:55:04.671Z,17.80
2022-09-13T22:57:33.527Z,17.70
2022-09-13T23:00:05.523Z,17.70
2022-09-13T23:02:35.818Z,17.70
2022-09-13T23:05:04.330Z,17.70
2022-09-13T23:07:34.831Z,17.70
2022-09-13T23:10:03.013Z,17.70
2022-09-13T23:12:34.405Z,17.60
2022-09-13T23:15:02.911Z,17.60
2022-09-13T23:17:33.279Z,17.60
2022-09-13T23:20:06.373Z,17.60
2022-09-13T23:28:38.374Z,17.60
2022-09-13T23:31:17.904Z,17.50
2022-09-13T23:33:50.831Z,17.40
2022-09-13T23:36:22.837Z,17.40
2022-09-13T23:38:53.090Z,17.40
2022-09-13T23:41:21.532Z,17.40
2022-09-13T23:43:49.922Z,17.40
2022-09-13T23:46:17.495Z,17.40
